Time;durP1;ratioP1;P1;durP2;ratioP2;P2;SDS_P1;SDS_P2;PMS_P1;PMS_P2;Temp;Humidity;BMP_temperature;BMP_pressure;BME280_temperature;BME280_humidity;BME280_pressure;Samples;Min_cycle;Max_cycle;Signal;HPM_P1;HPM_P2
2021/01/11 00:00:38;;;;;;;1.80;1.40;;;21.20;31.00;;;;;;4978972;28;20113;-45
2021/01/11 00:03:04;;;;;;;1.95;1.60;;;21.20;31.00;;;;;;4983651;28;20031;-44
2021/01/11 00:05:30;;;;;;;1.83;1.48;;;21.20;31.60;;;;;;4986407;28;20030;-46
2021/01/11 00:07:56;;;;;;;1.92;1.70;;;21.20;31.00;;;;;;4989602;28;20041;-45
2021/01/11 00:10:22;;;;;;;1.88;1.67;;;21.20;31.00;;;;;;4990633;28;20046;-45
2021/01/11 00:12:48;;;;;;;2.25;1.60;;;21.20;31.00;;;;;;4984727;28;20350;-43
2021/01/11 00:15:17;;;;;;;2.05;1.38;;;21.20;31.00;;;;;;4991497;28;20058;-41
2021/01/11 00:17:43;;;;;;;1.85;1.60;;;21.10;30.90;;;;;;4990451;28;20457;-45
2021/01/11 00:20:10;;;;;;;2.10;1.70;;;21.10;30.90;;;;;;4978684;28;20045;-44
2021/01/11 00:22:35;;;;;;;2.25;1.90;;;21.10;30.90;;;;;;4981565;28;20331;-45
2021/01/11 00:25:03;;;;;;;2.00;1.80;;;21.10;30.90;;;;;;4986488;28;20030;-46
2021/01/11 00:27:29;;;;;;;2.03;1.58;;;21.10;30.90;;;;;;4987971;28;20068;-43
2021/01/11 00:29:54;;;;;;;1.98;1.48;;;21.10;30.90;;;;;;4985518;28;20027;-45
2021/01/11 00:32:20;;;;;;;1.63;1.52;;;21.10;30.90;;;;;;4993240;28;20373;-45
2021/01/11 00:34:46;;;;;;;1.90;1.52;;;21.10;30.90;;;;;;4986829;28;20038;-48
2021/01/11 00:37:12;;;;;;;2.42;1.83;;;21.10;30.90;;;;;;4983517;28;20393;-44
2021/01/11 00:39:38;;;;;;;2.10;1.65;;;21.10;30.90;;;;;;4982393;28;20034;-44
2021/01/11 00:42:04;;;;;;;2.00;1.63;;;21.00;30.90;;;;;;4987639;28;20038;-43
2021/01/11 00:44:30;;;;;;;2.05;1.70;;;21.00;30.90;;;;;;4983753;28;20058;-45
2021/01/11 00:47:00;;;;;;;2.75;1.67;;;21.00;30.80;;;;;;4980769;28;20327;-44
2021/01/11 00:49:26;;;;;;;1.77;1.67;;;21.00;30.80;;;;;;4973645;28;20063;-44
2021/01/11 00:51:53;;;;;;;2.22;1.90;;;21.00;30.90;;;;;;4977910;28;20054;-46
2021/01/11 00:54:19;;;;;;;2.50;1.77;;;21.00;31.50;;;;;;4977726;28;20030;-47
2021/01/11 00:56:45;;;;;;;1.70;1.60;;;21.00;30.80;;;;;;4968344;28;20046;-49
2021/01/11 00:59:25;;;;;;;2.38;1.77;;;21.00;30.90;;;;;;4974821;28;20093;-45
2021/01/11 01:01:56;;;;;;;1.88;1.73;;;21.00;30.90;;;;;;4966140;28;20492;-45
2021/01/11 01:04:25;;;;;;;2.50;1.90;;;21.00;30.90;;;;;;4981081;28;20117;-44
2021/01/11 01:06:51;;;;;;;2.33;1.85;;;21.00;30.90;;;;;;4981824;28;20157;-46
2021/01/11 01:09:16;;;;;;;2.40;1.83;;;21.00;30.90;;;;;;4992076;28;20311;-43
2021/01/11 01:11:43;;;;;;;3.78;1.85;;;20.90;30.80;;;;;;4988434;28;20045;-42
2021/01/11 01:14:10;;;;;;;2.05;1.80;;;20.90;30.90;;;;;;4986248;28;20031;-43
2021/01/11 01:16:36;;;;;;;2.42;1.98;;;20.90;30.90;;;;;;4978590;28;20274;-45
2021/01/11 01:19:02;;;;;;;1.95;1.80;;;20.90;30.90;;;;;;4978460;28;20059;-45
2021/01/11 01:21:28;;;;;;;2.17;1.98;;;20.90;30.90;;;;;;4990992;28;20041;-46
2021/01/11 01:23:54;;;;;;;2.78;2.35;;;20.90;30.90;;;;;;4984417;28;20109;-44
2021/01/11 01:26:20;;;;;;;2.42;1.95;;;20.90;30.90;;;;;;4985746;28;20034;-45
2021/01/11 01:28:46;;;;;;;2.30;2.10;;;20.90;30.90;;;;;;4986634;28;20027;-45
2021/01/11 01:31:12;;;;;;;2.75;2.13;;;20.90;31.50;;;;;;4983355;28;20370;-44
2021/01/11 01:33:38;;;;;;;3.55;2.47;;;20.90;30.90;;;;;;4989599;28;20394;-45
2021/01/11 01:36:04;;;;;;;1.98;1.85;;;20.90;30.90;;;;;;4977587;28;20038;-46
2021/01/11 01:38:30;;;;;;;2.50;2.30;;;20.90;30.90;;;;;;4978597;28;20026;-44
2021/01/11 01:40:56;;;;;;;2.63;2.13;;;20.80;30.90;;;;;;4989133;28;20046;-44
2021/01/11 01:43:22;;;;;;;2.38;2.17;;;20.90;31.00;;;;;;4985272;28;20023;-46
2021/01/11 01:45:48;;;;;;;3.20;2.42;;;20.90;30.90;;;;;;4980963;28;20030;-45
2021/01/11 01:48:14;;;;;;;2.53;2.20;;;20.80;30.90;;;;;;4978933;28;20035;-45
2021/01/11 01:50:41;;;;;;;3.20;2.63;;;20.80;30.90;;;;;;4989825;28;20047;-43
2021/01/11 01:53:07;;;;;;;2.30;1.95;;;20.80;30.90;;;;;;4985489;28;20033;-45
2021/01/11 01:55:36;;;;;;;3.08;2.67;;;20.80;30.90;;;;;;4989177;28;20430;-42
2021/01/11 01:58:03;;;;;;;2.78;2.58;;;20.80;30.90;;;;;;4983496;28;20046;-44
2021/01/11 02:00:30;;;;;;;3.17;2.63;;;20.80;30.90;;;;;;4985926;28;20461;-43
2021/01/11 02:02:55;;;;;;;3.05;2.67;;;20.80;30.90;;;;;;4990977;28;20030;-43
2021/01/11 02:05:25;;;;;;;2.88;2.58;;;20.80;30.90;;;;;;4987801;28;20038;-46
2021/01/11 02:07:56;;;;;;;3.08;2.67;;;20.80;30.90;;;;;;4981206;28;20126;-43
2021/01/11 02:10:36;;;;;;;3.22;2.78;;;20.80;31.00;;;;;;4987682;28;20046;-43
2021/01/11 02:13:26;;;;;;;3.10;2.58;;;20.80;31.00;;;;;;4984820;28;20041;-45
2021/01/11 02:15:57;;;;;;;3.83;2.65;;;20.80;31.10;;;;;;4993238;28;20113;-45
2021/01/11 02:18:54;;;;;;;2.67;2.40;;;20.80;31.10;;;;;;4990628;28;20046;-43
2021/01/11 02:21:30;;;;;;;3.13;2.63;;;20.80;31.10;;;;;;4987105;28;20042;-46
2021/01/11 02:24:09;;;;;;;3.13;2.50;;;20.80;31.10;;;;;;4986005;28;20121;-48
2021/01/11 02:26:41;;;;;;;2.65;2.45;;;20.70;31.00;;;;;;4981127;28;20034;-44
2021/01/11 02:29:23;;;;;;;3.58;3.20;;;20.70;31.00;;;;;;4990224;28;20031;-45
2021/01/11 02:31:51;;;;;;;3.97;3.17;;;20.70;31.00;;;;;;4989519;28;20060;-44
2021/01/11 02:34:18;;;;;;;3.67;3.33;;;20.70;31.00;;;;;;4983185;28;20050;-43
2021/01/11 02:36:44;;;;;;;4.00;3.40;;;20.70;31.00;;;;;;4987770;28;20386;-42
2021/01/11 02:39:10;;;;;;;3.95;3.35;;;20.70;31.00;;;;;;4967794;28;20041;-44
2021/01/11 02:41:36;;;;;;;4.63;3.70;;;20.70;30.90;;;;;;4985426;28;20030;-45
2021/01/11 02:44:02;;;;;;;4.43;3.90;;;20.70;30.90;;;;;;4984580;28;20030;-43
2021/01/11 02:46:27;;;;;;;4.30;3.45;;;20.70;30.90;;;;;;4988342;28;20345;-43
2021/01/11 02:48:56;;;;;;;4.50;3.65;;;20.70;30.90;;;;;;4985699;28;20069;-45
2021/01/11 02:51:21;;;;;;;3.90;3.50;;;20.70;30.90;;;;;;4980450;28;20073;-44
2021/01/11 02:54:16;;;;;;;3.53;3.22;;;20.70;30.90;;;;;;4986146;28;20070;-43
2021/01/11 02:56:52;;;;;;;4.93;4.00;;;20.70;30.90;;;;;;4982058;28;20164;-43
2021/01/11 02:59:20;;;;;;;5.03;4.05;;;20.70;30.90;;;;;;4991315;28;20113;-43
2021/01/11 03:02:08;;;;;;;4.65;4.13;;;20.70;30.90;;;;;;4981832;28;20445;-44
2021/01/11 03:04:34;;;;;;;5.25;4.00;;;20.60;30.80;;;;;;4985102;28;20031;-45
2021/01/11 03:07:02;;;;;;;5.18;4.20;;;20.60;30.90;;;;;;4987370;28;20422;-43
2021/01/11 03:09:29;;;;;;;4.65;3.72;;;20.60;30.90;;;;;;4987038;28;20097;-46
2021/01/11 03:11:56;;;;;;;5.05;4.13;;;20.60;30.90;;;;;;4980730;28;20034;-44
2021/01/11 03:14:24;;;;;;;4.43;3.53;;;20.60;30.90;;;;;;4983541;28;20445;-43
2021/01/11 03:16:50;;;;;;;4.85;4.03;;;20.60;30.90;;;;;;4984206;28;20434;-45
2021/01/11 03:19:16;;;;;;;5.30;4.32;;;20.60;30.90;;;;;;4990119;28;20057;-44
2021/01/11 03:21:43;;;;;;;4.93;4.40;;;20.60;30.90;;;;;;4993674;28;20169;-46
2021/01/11 03:24:09;;;;;;;4.93;4.13;;;20.60;30.90;;;;;;4988525;28;20038;-43
2021/01/11 03:26:37;;;;;;;5.53;4.20;;;20.60;30.90;;;;;;4990390;28;20026;-43
2021/01/11 03:29:04;;;;;;;4.43;4.03;;;20.60;30.90;;;;;;4990959;28;20114;-42
2021/01/11 03:31:30;;;;;;;4.97;4.28;;;20.60;30.90;;;;;;4978797;28;20054;-44
2021/01/11 03:33:56;;;;;;;6.47;4.22;;;20.60;30.90;;;;;;4983490;28;20041;-45
2021/01/11 03:36:22;;;;;;;4.35;3.70;;;20.60;31.00;;;;;;4980136;28;20035;-43
2021/01/11 03:38:48;;;;;;;4.40;3.97;;;20.50;30.80;;;;;;4986267;28;20057;-43
2021/01/11 03:41:16;;;;;;;5.28;4.35;;;20.60;30.90;;;;;;4986034;28;20027;-44
2021/01/11 03:43:44;;;;;;;4.63;3.72;;;20.60;30.90;;;;;;4987653;28;20142;-47
2021/01/11 03:46:12;;;;;;;5.05;3.65;;;20.60;30.90;;;;;;4979754;28;20114;-45
2021/01/11 03:48:38;;;;;;;5.25;4.15;;;20.50;30.90;;;;;;4979377;28;20026;-44
2021/01/11 03:51:04;;;;;;;5.28;4.20;;;20.60;31.00;;;;;;4986198;28;20049;-50
2021/01/11 03:53:30;;;;;;;5.50;4.55;;;20.50;31.10;;;;;;4983415;28;20027;-49
2021/01/11 03:55:56;;;;;;;5.47;4.05;;;20.50;31.10;;;;;;4988005;28;20319;-50
2021/01/11 03:58:22;;;;;;;6.40;4.53;;;20.50;31.10;;;;;;4980172;28;20042;-44
2021/01/11 04:00:49;;;;;;;7.13;4.32;;;20.50;31.10;;;;;;4986865;28;20030;-49
2021/01/11 04:03:16;;;;;;;6.13;4.38;;;20.50;31.10;;;;;;4985566;28;20074;-46
2021/01/11 04:05:46;;;;;;;5.63;4.28;;;20.50;31.00;;;;;;4980429;28;20121;-44
2021/01/11 04:08:13;;;;;;;5.03;4.15;;;20.50;31.00;;;;;;4983642;28;20030;-46
2021/01/11 04:10:39;;;;;;;5.75;4.68;;;20.50;31.00;;;;;;4988343;28;20445;-44
2021/01/11 04:13:05;;;;;;;5.50;4.30;;;20.50;31.00;;;;;;4987974;28;20082;-44
2021/01/11 04:15:31;;;;;;;6.47;5.00;;;20.50;31.00;;;;;;4987507;28;20046;-45
2021/01/11 04:17:57;;;;;;;5.55;4.75;;;20.50;30.90;;;;;;4981678;28;20050;-45
2021/01/11 04:20:24;;;;;;;5.85;4.20;;;20.50;30.90;;;;;;4979895;28;20346;-46
2021/01/11 04:22:50;;;;;;;6.47;4.85;;;20.50;31.00;;;;;;4981493;28;20035;-45
2021/01/11 04:25:17;;;;;;;6.85;5.03;;;20.50;31.00;;;;;;4984971;28;20336;-42
2021/01/11 04:27:43;;;;;;;5.82;4.47;;;20.40;30.90;;;;;;4985756;28;20034;-43
2021/01/11 04:30:10;;;;;;;6.55;4.95;;;20.40;30.90;;;;;;4988601;28;20437;-43
2021/01/11 04:32:36;;;;;;;6.15;4.57;;;20.50;31.00;;;;;;4985578;28;20034;-45
2021/01/11 04:35:03;;;;;;;6.38;4.75;;;20.50;31.60;;;;;;4980360;28;20039;-43
2021/01/11 04:37:29;;;;;;;6.43;4.50;;;20.40;31.00;;;;;;4991043;28;20038;-43
2021/01/11 04:39:55;;;;;;;7.20;5.43;;;20.40;30.90;;;;;;4977559;28;20040;-43
2021/01/11 04:42:31;;;;;;;6.88;5.25;;;20.40;31.00;;;;;;4982745;28;20042;-45
2021/01/11 04:44:57;;;;;;;7.00;5.32;;;20.40;31.00;;;;;;4988505;28;20031;-43
2021/01/11 04:47:26;;;;;;;5.43;4.57;;;20.40;31.00;;;;;;4980149;28;20117;-43
2021/01/11 04:49:55;;;;;;;6.40;4.72;;;20.40;31.00;;;;;;4989661;28;20035;-44
2021/01/11 04:52:20;;;;;;;6.47;4.80;;;20.40;31.00;;;;;;4977304;28;20030;-44
2021/01/11 04:54:50;;;;;;;6.05;4.63;;;20.40;30.90;;;;;;4977261;28;20097;-44
2021/01/11 04:57:17;;;;;;;7.57;5.55;;;20.40;30.90;;;;;;4980913;28;20107;-46
2021/01/11 04:59:49;;;;;;;6.30;4.78;;;20.40;30.90;;;;;;4988234;28;20022;-43
2021/01/11 05:02:21;;;;;;;6.63;4.82;;;20.40;30.90;;;;;;4986289;28;20392;-44
2021/01/11 05:04:48;;;;;;;5.85;4.55;;;20.40;30.90;;;;;;4986210;28;20052;-43
2021/01/11 05:07:22;;;;;;;7.80;5.38;;;20.40;30.90;;;;;;4985655;28;20438;-43
2021/01/11 05:09:48;;;;;;;6.88;4.95;;;20.40;31.00;;;;;;4976855;28;21194;-45
2021/01/11 05:12:14;;;;;;;6.63;4.93;;;20.40;31.00;;;;;;4983639;28;20038;-44
2021/01/11 05:14:43;;;;;;;6.95;4.80;;;20.30;30.90;;;;;;4988942;28;20438;-46
2021/01/11 05:17:13;;;;;;;5.22;4.45;;;20.30;30.90;;;;;;4983812;28;20031;-43
2021/01/11 05:19:38;;;;;;;6.28;5.10;;;20.30;30.90;;;;;;4983764;28;20362;-44
2021/01/11 05:22:09;;;;;;;8.32;5.63;;;20.30;30.90;;;;;;4983697;28;20041;-44
2021/01/11 05:24:43;;;;;;;8.27;5.00;;;20.30;31.00;;;;;;4982085;28;20031;-47
2021/01/11 05:27:10;;;;;;;6.57;5.05;;;20.30;31.00;;;;;;4979579;28;20458;-44
2021/01/11 05:29:40;;;;;;;6.75;4.93;;;20.30;31.00;;;;;;4991603;28;20505;-44
2021/01/11 05:32:08;;;;;;;6.82;4.90;;;20.30;31.00;;;;;;4979580;28;20043;-44
2021/01/11 05:34:53;;;;;;;5.82;4.45;;;20.30;31.00;;;;;;4979827;28;20031;-42
2021/01/11 05:37:32;;;;;;;6.72;4.97;;;20.30;31.00;;;;;;4984560;28;20442;-43
2021/01/11 05:40:15;;;;;;;6.43;4.80;;;20.30;31.10;;;;;;4964431;28;20041;-43
2021/01/11 05:42:47;;;;;;;6.55;4.97;;;20.30;31.10;;;;;;4985883;28;20034;-42
2021/01/11 05:45:23;;;;;;;6.30;4.70;;;20.30;31.10;;;;;;4985073;28;20037;-43
2021/01/11 05:48:08;;;;;;;5.85;4.80;;;20.30;31.10;;;;;;4981211;28;20037;-44
2021/01/11 05:50:45;;;;;;;8.65;5.30;;;20.30;31.10;;;;;;4990000;28;20034;-43
2021/01/11 05:53:20;;;;;;;5.97;5.07;;;20.30;31.10;;;;;;4981101;28;20491;-43
2021/01/11 05:55:46;;;;;;;;;;;20.30;31.10;;;;;;4989009;28;20109;-43
2021/01/11 05:58:12;;;;;;;6.78;5.03;;;20.20;31.10;;;;;;4988786;28;19921;-43
2021/01/11 06:00:39;;;;;;;6.47;5.13;;;20.20;31.10;;;;;;4991226;28;20034;-43
2021/01/11 06:03:07;;;;;;;7.55;5.50;;;20.20;31.10;;;;;;4984338;28;20090;-44
2021/01/11 06:05:34;;;;;;;7.07;5.53;;;20.20;31.20;;;;;;4989359;28;20042;-43
2021/01/11 06:08:01;;;;;;;7.53;5.30;;;20.20;31.20;;;;;;4988678;28;20039;-44
2021/01/11 06:10:27;;;;;;;8.43;5.82;;;20.20;31.20;;;;;;4983908;28;20125;-45
2021/01/11 06:12:54;;;;;;;8.75;6.28;;;20.20;31.20;;;;;;4988684;28;20026;-44
2021/01/11 06:15:22;;;;;;;7.45;5.80;;;20.20;31.20;;;;;;4987340;28;20035;-43
2021/01/11 06:17:50;;;;;;;8.00;6.07;;;20.20;31.20;;;;;;4986180;28;20503;-43
2021/01/11 06:20:29;;;;;;;7.15;5.72;;;20.20;31.20;;;;;;4987655;28;20073;-44
2021/01/11 06:22:58;;;;;;;6.85;5.78;;;20.20;31.20;;;;;;4976102;28;20031;-44
2021/01/11 06:25:24;;;;;;;8.07;5.78;;;20.20;31.30;;;;;;4974963;28;20085;-45
2021/01/11 06:27:58;;;;;;;10.15;6.15;;;20.20;31.30;;;;;;4980355;28;20069;-45
2021/01/11 06:30:33;;;;;;;7.10;6.05;;;20.20;31.30;;;;;;4983301;28;20481;-47
2021/01/11 06:33:10;;;;;;;7.22;6.03;;;20.10;31.30;;;;;;4984355;28;20039;-44
2021/01/11 06:35:39;;;;;;;8.65;6.35;;;20.20;31.30;;;;;;4989691;28;20022;-43
2021/01/11 06:38:28;;;;;;;7.55;5.63;;;20.20;31.30;;;;;;4980600;28;20049;-45
2021/01/11 06:41:03;;;;;;;6.63;5.75;;;20.10;31.30;;;;;;4979373;28;20534;-45
2021/01/11 06:43:30;;;;;;;7.60;6.60;;;20.20;31.40;;;;;;4982380;28;20027;-44
2021/01/11 06:45:55;;;;;;;7.78;6.30;;;20.10;31.30;;;;;;4989138;28;20045;-46
2021/01/11 06:48:23;;;;;;;7.80;6.55;;;20.10;31.40;;;;;;4981744;28;20528;-44
2021/01/11 06:50:50;;;;;;;7.75;6.50;;;20.10;31.40;;;;;;4981658;28;20063;-44
2021/01/11 06:53:29;;;;;;;7.90;6.35;;;20.10;31.40;;;;;;4983094;28;20026;-47
2021/01/11 06:56:08;;;;;;;7.45;6.30;;;20.10;31.40;;;;;;4983272;28;20042;-44
2021/01/11 06:58:40;;;;;;;7.03;6.15;;;20.10;31.40;;;;;;4984254;28;20030;-44
2021/01/11 07:01:12;;;;;;;6.35;5.68;;;20.10;31.40;;;;;;4984478;28;20042;-46
2021/01/11 07:03:46;;;;;;;7.72;6.18;;;20.10;31.40;;;;;;4996686;28;20461;-43
2021/01/11 07:06:31;;;;;;;8.07;6.05;;;20.10;31.40;;;;;;4982937;28;20050;-47
2021/01/11 07:09:11;;;;;;;7.05;5.88;;;20.10;31.40;;;;;;4979795;28;20118;-49
2021/01/11 07:11:48;;;;;;;6.78;5.57;;;20.10;31.40;;;;;;4968926;28;20046;-45
2021/01/11 07:14:22;;;;;;;8.10;5.72;;;20.10;31.40;;;;;;4978115;28;20022;-43
2021/01/11 07:16:51;;;;;;;6.60;5.60;;;20.10;31.40;;;;;;4991451;28;20038;-44
2021/01/11 07:19:43;;;;;;;7.00;5.78;;;20.00;31.40;;;;;;4988769;28;20039;-42
2021/01/11 07:22:12;;;;;;;6.00;5.28;;;20.10;31.40;;;;;;4978077;28;20034;-43
2021/01/11 07:24:40;;;;;;;6.88;5.05;;;20.10;31.50;;;;;;4978699;28;20030;-47
2021/01/11 07:27:18;;;;;;;6.50;5.55;;;20.00;31.40;;;;;;4978020;28;20034;-44
2021/01/11 07:29:43;;;;;;;5.90;5.30;;;20.10;31.50;;;;;;4984551;28;20415;-43
2021/01/11 07:32:09;;;;;;;6.43;5.50;;;20.00;31.40;;;;;;4979324;28;20035;-45
2021/01/11 07:34:35;;;;;;;6.45;4.68;;;20.10;31.50;;;;;;4995361;28;20065;-45
2021/01/11 07:37:01;;;;;;;5.78;4.90;;;20.00;31.50;;;;;;4993148;28;20367;-44
2021/01/11 07:39:28;;;;;;;5.32;3.95;;;20.00;31.60;;;;;;4985306;28;20065;-49
2021/01/11 07:42:00;;;;;;;5.28;3.75;;;20.10;31.90;;;;;;4979097;28;20026;-49
2021/01/11 07:44:39;;;;;;;4.40;3.58;;;20.10;32.20;;;;;;4992928;28;20109;-48
2021/01/11 07:47:13;;;;;;;4.95;3.72;;;20.20;32.50;;;;;;4978963;28;20018;-49
2021/01/11 07:49:57;;;;;;;4.10;3.60;;;20.20;32.60;;;;;;4995414;28;20034;-46
2021/01/11 07:52:26;;;;;;;4.70;3.60;;;20.30;32.50;;;;;;4982584;28;20066;-45
2021/01/11 07:55:03;;;;;;;5.60;3.60;;;20.30;32.30;;;;;;4985678;28;20026;-52
2021/01/11 07:57:31;;;;;;;4.20;3.22;;;20.40;32.10;;;;;;4995178;28;20034;-47
2021/01/11 08:00:08;;;;;;;4.00;3.10;;;20.40;31.90;;;;;;5003086;28;20409;-49
2021/01/11 08:02:44;;;;;;;4.70;3.58;;;20.50;31.90;;;;;;4992928;28;20352;-48
2021/01/11 08:05:25;;;;;;;3.90;3.22;;;20.60;31.80;;;;;;4991219;28;20101;-50
2021/01/11 08:08:01;;;;;;;4.20;3.38;;;20.60;31.60;;;;;;4994148;28;20035;-51
2021/01/11 08:10:27;;;;;;;3.42;3.03;;;20.70;31.50;;;;;;4990798;28;20033;-45
2021/01/11 08:13:03;;;;;;;4.88;3.30;;;20.70;31.40;;;;;;4993774;28;20042;-46
2021/01/11 08:15:28;;;;;;;3.58;2.83;;;20.70;31.30;;;;;;4981411;28;20410;-44
2021/01/11 08:17:55;;;;;;;4.22;3.65;;;20.80;31.30;;;;;;4995356;28;20042;-45
2021/01/11 08:20:24;;;;;;;3.70;3.25;;;20.80;31.20;;;;;;4979896;28;20035;-45
2021/01/11 08:22:50;;;;;;;2.88;2.60;;;20.90;31.20;;;;;;4991194;28;20113;-45
2021/01/11 08:25:16;;;;;;;3.38;2.83;;;20.90;31.10;;;;;;4995827;28;20114;-48
2021/01/11 08:27:46;;;;;;;3.80;3.10;;;21.00;31.10;;;;;;4977832;28;20478;-43
2021/01/11 08:30:16;;;;;;;4.45;3.00;;;21.00;31.00;;;;;;4976495;28;20041;-46
2021/01/11 08:32:43;;;;;;;4.15;2.88;;;21.10;31.00;;;;;;4986133;28;20034;-47
2021/01/11 08:35:14;;;;;;;5.68;3.08;;;21.10;31.00;;;;;;4995431;28;20030;-44
2021/01/11 08:37:44;;;;;;;4.55;3.20;;;21.10;30.90;;;;;;4986763;28;20407;-48
2021/01/11 08:40:12;;;;;;;3.08;2.75;;;21.20;31.00;;;;;;4978537;28;20038;-45
2021/01/11 08:42:39;;;;;;;4.55;3.10;;;21.20;30.90;;;;;;4989475;28;20099;-46
2021/01/11 08:45:23;;;;;;;7.85;2.83;;;21.30;31.00;;;;;;4977056;28;20034;-45
2021/01/11 08:48:00;;;;;;;3.70;2.90;;;21.40;31.60;;;;;;4993839;28;20416;-44
2021/01/11 08:50:26;;;;;;;3.67;2.90;;;21.40;30.90;;;;;;4963120;28;20413;-43
2021/01/11 08:52:52;;;;;;;3.95;3.10;;;21.50;30.90;;;;;;4976389;28;20031;-44
2021/01/11 08:55:18;;;;;;;5.97;2.83;;;21.50;30.80;;;;;;4984385;28;20461;-44
2021/01/11 08:58:01;;;;;;;3.67;3.10;;;21.60;30.70;;;;;;4987914;28;20037;-44
2021/01/11 09:00:27;;;;;;;4.20;3.38;;;21.70;30.60;;;;;;4984427;28;20027;-44
2021/01/11 09:02:53;;;;;;;3.65;2.75;;;21.70;30.50;;;;;;4976500;28;20034;-45
2021/01/11 09:05:23;;;;;;;3.13;2.83;;;21.80;30.40;;;;;;4993097;28;20037;-50
2021/01/11 09:07:51;;;;;;;2.88;2.40;;;21.90;30.40;;;;;;4994924;28;20035;-43
2021/01/11 09:10:31;;;;;;;2.55;2.10;;;21.90;30.30;;;;;;4994347;28;20035;-43
2021/01/11 09:13:22;;;;;;;3.00;2.70;;;22.00;30.30;;;;;;4992913;28;20046;-45
2021/01/11 09:15:48;;;;;;;4.38;2.70;;;22.10;30.30;;;;;;4986567;28;20093;-49
2021/01/11 09:18:14;;;;;;;3.05;2.28;;;22.20;30.20;;;;;;4976061;28;20467;-42
2021/01/11 09:20:44;;;;;;;3.00;2.60;;;22.20;30.10;;;;;;4970833;28;20034;-43
2021/01/11 09:23:11;;;;;;;3.08;2.40;;;22.30;30.10;;;;;;4959724;28;20155;-44
2021/01/11 09:25:38;;;;;;;2.75;2.28;;;22.40;30.10;;;;;;4969639;28;20031;-44
2021/01/11 09:28:06;;;;;;;3.00;2.10;;;22.40;30.00;;;;;;4962635;28;20042;-45
2021/01/11 09:30:32;;;;;;;3.65;2.30;;;22.40;30.00;;;;;;4969882;28;20489;-46
2021/01/11 09:32:59;;;;;;;2.28;2.00;;;22.50;30.00;;;;;;4963398;28;20503;-43
2021/01/11 09:35:25;;;;;;;2.67;2.20;;;22.60;30.00;;;;;;4964706;28;20039;-45
2021/01/11 09:37:52;;;;;;;2.22;1.90;;;22.60;29.90;;;;;;4958932;28;20036;-49
2021/01/11 09:40:20;;;;;;;3.45;2.28;;;22.70;29.90;;;;;;4975475;28;20033;-46
2021/01/11 09:42:47;;;;;;;2.97;1.73;;;22.80;29.90;;;;;;4975095;28;20029;-45
2021/01/11 09:45:14;;;;;;;4.05;2.50;;;22.80;29.90;;;;;;4957626;28;20039;-44
2021/01/11 09:47:41;;;;;;;3.05;2.42;;;22.90;29.80;;;;;;4963566;28;20442;-46
2021/01/11 09:50:08;;;;;;;2.90;2.13;;;22.90;29.80;;;;;;4974516;28;20026;-47
2021/01/11 09:52:34;;;;;;;2.20;1.90;;;22.90;29.80;;;;;;4965407;28;20035;-46
2021/01/11 09:55:01;;;;;;;2.90;2.05;;;23.00;29.80;;;;;;4969942;28;20201;-44
2021/01/11 09:57:27;;;;;;;6.45;2.60;;;23.00;29.70;;;;;;4973164;28;20146;-47
2021/01/11 09:59:53;;;;;;;2.65;2.25;;;23.00;29.60;;;;;;4956208;28;20106;-44
2021/01/11 10:02:18;;;;;;;2.83;2.13;;;23.10;29.60;;;;;;4963388;28;20023;-48
2021/01/11 10:04:44;;;;;;;2.90;2.10;;;23.10;29.60;;;;;;4956904;28;20046;-48
2021/01/11 10:07:10;;;;;;;2.70;2.13;;;23.10;29.60;;;;;;4961828;28;20042;-44
2021/01/11 10:09:36;;;;;;;2.55;2.05;;;23.10;29.50;;;;;;4973414;28;20186;-44
2021/01/11 10:12:04;;;;;;;2.80;2.20;;;23.10;29.50;;;;;;4976359;28;20038;-44
2021/01/11 10:14:32;;;;;;;2.75;1.85;;;23.20;29.50;;;;;;4962442;28;20038;-47
2021/01/11 10:16:58;;;;;;;3.58;2.05;;;23.20;29.40;;;;;;4961315;28;20027;-47
2021/01/11 10:19:26;;;;;;;2.20;1.80;;;23.20;29.40;;;;;;4990432;28;20042;-43
2021/01/11 10:21:53;;;;;;;2.13;1.70;;;23.20;29.40;;;;;;4982970;28;20039;-43
2021/01/11 10:24:21;;;;;;;4.18;2.55;;;23.20;29.30;;;;;;4980016;28;20117;-44
2021/01/11 10:26:49;;;;;;;3.85;1.80;;;23.10;29.30;;;;;;4982328;28;20038;-47
2021/01/11 10:29:16;;;;;;;2.30;1.88;;;23.20;29.30;;;;;;4998387;28;20038;-47
2021/01/11 10:31:44;;;;;;;3.20;1.98;;;23.20;29.30;;;;;;4985574;28;20039;-46
2021/01/11 10:34:10;;;;;;;2.25;1.90;;;23.20;29.20;;;;;;4985556;28;20031;-49
2021/01/11 10:36:41;;;;;;;3.05;2.10;;;23.20;29.20;;;;;;4993042;28;20059;-44
2021/01/11 10:39:08;;;;;;;5.72;2.10;;;23.20;29.20;;;;;;4992915;28;20038;-45
2021/01/11 10:41:33;;;;;;;3.60;1.92;;;23.20;29.20;;;;;;4985602;28;20084;-45
2021/01/11 10:44:00;;;;;;;6.20;1.92;;;23.20;29.10;;;;;;4978793;28;20046;-47
2021/01/11 10:46:26;;;;;;;2.58;1.70;;;23.20;29.10;;;;;;4981344;28;20039;-45
2021/01/11 10:48:53;;;;;;;2.25;1.77;;;23.20;29.10;;;;;;4983362;28;20042;-44
2021/01/11 10:51:22;;;;;;;3.15;1.88;;;23.20;29.00;;;;;;4996550;28;20085;-45
2021/01/11 10:53:49;;;;;;;2.22;1.80;;;23.20;29.00;;;;;;4987603;28;20034;-45
2021/01/11 10:56:15;;;;;;;2.95;1.80;;;23.20;29.00;;;;;;4998048;28;20022;-45
2021/01/11 10:58:41;;;;;;;1.92;1.52;;;23.20;29.00;;;;;;4980760;28;20071;-45
2021/01/11 11:01:12;;;;;;;2.55;1.80;;;23.20;29.00;;;;;;4978289;28;20114;-45
2021/01/11 11:03:38;;;;;;;2.22;1.60;;;23.20;29.00;;;;;;4981264;28;20446;-43
2021/01/11 11:06:04;;;;;;;3.97;2.00;;;23.20;29.00;;;;;;4981833;28;20032;-45
2021/01/11 11:08:30;;;;;;;2.38;1.80;;;23.30;29.00;;;;;;4988756;28;20442;-44
2021/01/11 11:10:56;;;;;;;2.30;1.70;;;23.30;29.00;;;;;;4992612;28;20030;-45
2021/01/11 11:13:22;;;;;;;4.20;1.70;;;23.30;29.00;;;;;;4993797;28;20045;-44
2021/01/11 11:15:48;;;;;;;2.47;1.88;;;23.30;29.00;;;;;;4987977;28;20465;-48
2021/01/11 11:18:15;;;;;;;2.00;1.67;;;23.30;29.00;;;;;;4994918;28;20394;-45
2021/01/11 11:20:43;;;;;;;1.60;1.50;;;23.30;28.90;;;;;;4992072;28;20030;-45
2021/01/11 11:23:09;;;;;;;1.75;1.45;;;23.20;28.90;;;;;;4995625;28;20102;-44
2021/01/11 11:25:34;;;;;;;1.80;1.40;;;23.20;28.90;;;;;;4996772;28;20357;-45
2021/01/11 11:28:01;;;;;;;2.22;1.65;;;23.20;29.00;;;;;;4996811;28;20030;-45
2021/01/11 11:30:27;;;;;;;1.45;1.35;;;23.20;29.10;;;;;;4996177;28;20389;-48
2021/01/11 11:32:53;;;;;;;2.50;1.45;;;23.20;29.20;;;;;;4996574;28;20061;-44
2021/01/11 11:35:20;;;;;;;2.78;1.60;;;23.20;29.20;;;;;;4996240;28;20081;-46
2021/01/11 11:37:48;;;;;;;2.47;1.40;;;23.20;29.20;;;;;;4996626;28;20034;-44
2021/01/11 11:40:15;;;;;;;2.65;1.80;;;23.30;29.20;;;;;;4982202;28;20066;-50
2021/01/11 11:42:43;;;;;;;1.83;1.40;;;23.30;29.30;;;;;;4982323;28;20085;-44
2021/01/11 11:45:12;;;;;;;3.08;1.70;;;23.30;29.20;;;;;;4977594;28;20027;-48
2021/01/11 11:47:39;;;;;;;2.92;1.63;;;23.30;29.20;;;;;;4980404;28;20109;-47
2021/01/11 11:50:11;;;;;;;2.13;1.70;;;23.40;29.30;;;;;;4988246;28;20022;-46
2021/01/11 11:52:37;;;;;;;2.00;1.60;;;23.40;29.30;;;;;;4996439;28;20406;-47
2021/01/11 11:55:06;;;;;;;7.50;1.77;;;23.40;29.30;;;;;;4977287;28;20100;-44
2021/01/11 11:57:32;;;;;;;1.80;1.55;;;23.50;29.30;;;;;;4995929;28;20034;-43
2021/01/11 11:59:58;;;;;;;2.42;1.80;;;23.50;29.30;;;;;;4993437;28;20327;-44
2021/01/11 12:02:24;;;;;;;2.15;1.67;;;23.60;29.20;;;;;;4986179;28;20062;-48
2021/01/11 12:04:50;;;;;;;3.97;1.50;;;23.60;29.40;;;;;;4983043;28;20148;-50
2021/01/11 12:07:16;;;;;;;3.78;1.50;;;23.60;29.60;;;;;;4986366;28;20069;-48
2021/01/11 12:09:43;;;;;;;1.55;1.30;;;23.60;29.60;;;;;;4981659;28;20065;-51
2021/01/11 12:12:13;;;;;;;1.63;1.23;;;23.60;29.50;;;;;;4983973;28;20045;-48
2021/01/11 12:14:38;;;;;;;1.70;1.38;;;23.60;29.50;;;;;;4988778;28;20487;-49
2021/01/11 12:17:04;;;;;;;1.77;1.30;;;23.70;29.50;;;;;;4985677;28;20125;-51
2021/01/11 12:19:30;;;;;;;2.22;1.30;;;23.70;29.40;;;;;;4985875;28;20118;-51
2021/01/11 12:21:56;;;;;;;2.42;1.67;;;23.70;29.40;;;;;;4983926;28;20037;-47
2021/01/11 12:24:22;;;;;;;1.58;1.27;;;23.80;29.30;;;;;;4985964;28;20404;-49
2021/01/11 12:26:49;;;;;;;2.45;1.42;;;23.80;29.40;;;;;;4987189;28;20438;-54
2021/01/11 12:29:16;;;;;;;2.67;1.60;;;23.90;29.50;;;;;;4995550;28;20026;-43
2021/01/11 12:31:43;;;;;;;1.75;1.35;;;23.90;29.50;;;;;;4987164;28;20034;-51
2021/01/11 12:34:10;;;;;;;1.63;1.40;;;24.00;29.50;;;;;;4981799;28;20043;-49
2021/01/11 12:36:37;;;;;;;1.98;1.25;;;24.00;29.50;;;;;;4958858;28;20378;-47
2021/01/11 12:39:06;;;;;;;1.65;1.25;;;24.00;29.40;;;;;;4995093;28;20302;-50
2021/01/11 12:41:32;;;;;;;2.10;1.20;;;24.10;29.30;;;;;;4995913;28;20038;-46
2021/01/11 12:43:58;;;;;;;1.77;1.17;;;24.10;29.20;;;;;;4995823;28;20030;-46
2021/01/11 12:46:25;;;;;;;1.40;1.30;;;24.10;29.00;;;;;;4984333;28;20446;-51
2021/01/11 12:48:51;;;;;;;1.70;1.25;;;24.10;28.90;;;;;;4976443;28;20031;-49
2021/01/11 12:51:22;;;;;;;1.48;1.00;;;24.20;28.90;;;;;;4988149;28;20129;-50
2021/01/11 12:53:50;;;;;;;1.50;1.20;;;24.20;28.80;;;;;;4995525;28;20038;-47
2021/01/11 12:56:21;;;;;;;1.42;1.25;;;24.20;29.30;;;;;;4995164;28;20026;-52